createdAt,value
2019-04-29T00:02:32.386Z,3.30
2019-04-29T00:05:01.361Z,3.77
2019-04-29T00:07:30.530Z,3.27
2019-04-29T00:09:59.656Z,3.87
2019-04-29T00:12:29.476Z,5.17
2019-04-29T00:15:08.942Z,4.87
2019-04-29T00:17:56.989Z,4.67
2019-04-29T00:20:32.869Z,3.63
2019-04-29T00:23:01.888Z,4.43
2019-04-29T00:25:30.941Z,3.63
2019-04-29T00:27:59.859Z,5.37
2019-04-29T00:30:28.882Z,4.83
2019-04-29T00:32:58.119Z,3.77
2019-04-29T00:35:27.506Z,5.00
2019-04-29T00:38:14.272Z,4.70
2019-04-29T00:41:05.366Z,6.90
2019-04-29T00:43:51.478Z,5.03
2019-04-29T00:46:20.524Z,4.60
2019-04-29T00:48:49.755Z,3.77
2019-04-29T00:51:18.766Z,5.43
2019-04-29T00:53:49.375Z,4.27
2019-04-29T00:56:18.648Z,5.20
2019-04-29T00:58:47.723Z,4.43
2019-04-29T01:01:22.562Z,6.93
2019-04-29T01:03:51.619Z,8.03
2019-04-29T01:06:20.621Z,5.23
2019-04-29T01:08:49.537Z,5.50
2019-04-29T01:11:18.533Z,4.53
2019-04-29T01:13:47.569Z,6.53
2019-04-29T01:16:16.625Z,5.80
2019-04-29T01:18:45.698Z,6.10
2019-04-29T01:21:14.691Z,5.47
2019-04-29T01:23:44.047Z,5.33
2019-04-29T01:26:25.682Z,7.50
2019-04-29T01:28:55.785Z,6.77
2019-04-29T01:31:28.794Z,6.33
2019-04-29T01:34:03.083Z,5.40
2019-04-29T01:36:39.983Z,7.07
2019-04-29T01:39:11.301Z,6.87
2019-04-29T01:41:52.210Z,7.07
2019-04-29T01:44:21.710Z,7.87
2019-04-29T01:46:50.777Z,7.43
2019-04-29T01:49:19.722Z,8.33
2019-04-29T01:51:48.724Z,6.90
2019-04-29T01:54:18.018Z,7.90
2019-04-29T01:56:47.187Z,7.87
2019-04-29T01:59:16.374Z,7.40
2019-04-29T02:01:45.535Z,6.97
2019-04-29T02:04:14.475Z,7.67
2019-04-29T02:06:43.395Z,9.27
2019-04-29T02:09:18.393Z,8.60
2019-04-29T02:11:47.251Z,7.77
2019-04-29T02:14:16.447Z,8.27
2019-04-29T02:16:45.405Z,7.00
2019-04-29T02:19:14.333Z,7.37
2019-04-29T02:21:44.938Z,8.80
2019-04-29T02:24:18.468Z,8.50
2019-04-29T02:26:47.411Z,8.37
2019-04-29T02:29:16.389Z,9.40
2019-04-29T02:31:46.904Z,9.57
2019-04-29T02:34:16.116Z,8.60
2019-04-29T02:36:45.037Z,9.80
2019-04-29T02:39:33.509Z,9.43
2019-04-29T02:42:27.847Z,9.33
2019-04-29T02:45:00.541Z,8.90
2019-04-29T02:47:29.552Z,8.63
2019-04-29T02:49:58.562Z,11.63
2019-04-29T02:52:27.506Z,8.63
2019-04-29T02:54:59.274Z,11.50
2019-04-29T02:57:33.556Z,10.73
2019-04-29T03:00:21.803Z,11.07
2019-04-29T03:03:00.286Z,10.83
2019-04-29T03:05:34.086Z,10.73
2019-04-29T03:08:03.085Z,10.93
2019-04-29T03:10:32.462Z,10.40
2019-04-29T03:13:01.403Z,11.90
2019-04-29T03:15:33.116Z,11.30
2019-04-29T03:18:02.408Z,11.97
2019-04-29T03:20:47.120Z,11.57
2019-04-29T03:23:18.163Z,10.97
2019-04-29T03:25:47.245Z,11.63
2019-04-29T03:28:16.174Z,10.67
2019-04-29T03:30:45.523Z,11.20
2019-04-29T03:33:14.481Z,11.43
2019-04-29T03:35:43.651Z,11.47
2019-04-29T03:38:13.175Z,11.83
2019-04-29T03:40:42.215Z,11.43
2019-04-29T03:43:11.210Z,11.00
2019-04-29T03:45:40.495Z,12.83
2019-04-29T03:48:09.513Z,11.73
2019-04-29T03:50:38.698Z,12.23
2019-04-29T03:53:07.646Z,13.20
2019-04-29T03:55:39.684Z,11.80
2019-04-29T03:58:07.252Z,12.53
2019-04-29T04:00:36.252Z,15.17
2019-04-29T04:03:23.025Z,14.40
2019-04-29T04:06:02.204Z,15.43
2019-04-29T04:08:39.757Z,14.07
2019-04-29T04:11:08.738Z,14.43
2019-04-29T04:13:37.713Z,21.67
2019-04-29T04:16:08.357Z,15.60
2019-04-29T04:18:37.368Z,15.93
2019-04-29T04:21:06.678Z,15.63
2019-04-29T04:23:35.975Z,15.53
2019-04-29T04:26:05.040Z,16.63
2019-04-29T04:28:34.064Z,16.43
2019-04-29T04:31:06.769Z,19.13
2019-04-29T04:33:33.783Z,16.73
2019-04-29T04:36:02.695Z,15.33
2019-04-29T04:38:31.658Z,18.80
2019-04-29T04:41:06.618Z,17.17
2019-04-29T04:43:35.703Z,18.23
2019-04-29T04:46:04.796Z,18.83
2019-04-29T04:48:33.974Z,17.50
2019-04-29T04:51:02.912Z,17.07
2019-04-29T04:53:31.870Z,19.10
2019-04-29T04:56:01.950Z,16.20
2019-04-29T04:58:30.910Z,17.43
2019-04-29T05:01:00.240Z,18.27
2019-04-29T05:03:29.249Z,18.87
2019-04-29T05:05:58.292Z,21.20
2019-04-29T05:08:27.262Z,16.33
2019-04-29T05:10:56.297Z,17.93
2019-04-29T05:13:28.615Z,17.97
2019-04-29T05:15:58.003Z,18.40
2019-04-29T05:18:26.986Z,18.20
2019-04-29T05:20:56.241Z,17.30
2019-04-29T05:23:25.119Z,19.30
2019-04-29T05:25:54.038Z,19.37
2019-04-29T05:28:23.002Z,16.87
2019-04-29T05:30:51.850Z,18.53
2019-04-29T05:33:21.101Z,17.97
2019-04-29T05:36:05.234Z,19.70
2019-04-29T05:38:38.444Z,18.27
2019-04-29T05:41:07.647Z,18.10
2019-04-29T05:44:14.094Z,16.63
2019-04-29T05:46:49.685Z,19.27
2019-04-29T05:49:23.400Z,17.40
2019-04-29T05:52:23.431Z,18.87
2019-04-29T05:54:52.387Z,20.20
2019-04-29T05:57:25.344Z,17.47
2019-04-29T05:59:52.174Z,16.20
2019-04-29T06:02:24.010Z,17.67
2019-04-29T06:04:53.958Z,16.93
2019-04-29T06:07:23.217Z,17.47
2019-04-29T06:09:53.587Z,18.23
2019-04-29T06:12:22.499Z,22.20
2019-04-29T06:14:51.451Z,16.00
2019-04-29T06:17:20.416Z,16.43
2019-04-29T06:19:49.347Z,17.80
2019-04-29T06:22:18.300Z,18.70
2019-04-29T06:24:47.226Z,19.37
2019-04-29T06:27:16.115Z,18.83
2019-04-29T06:29:45.353Z,20.70
2019-04-29T06:32:14.367Z,18.50
2019-04-29T06:34:43.567Z,19.53
2019-04-29T06:37:12.547Z,20.00
2019-04-29T06:39:41.517Z,18.47
2019-04-29T06:42:10.811Z,18.73
2019-04-29T06:44:39.804Z,19.90
2019-04-29T06:47:09.208Z,16.23
2019-04-29T06:49:38.192Z,16.53
2019-04-29T06:52:07.436Z,16.27
2019-04-29T06:54:36.433Z,16.37
2019-04-29T06:57:05.315Z,14.23
2019-04-29T06:59:34.570Z,13.33
